Time;durP1;ratioP1;P1;durP2;ratioP2;P2;SDS_P1;SDS_P2;PMS_P1;PMS_P2;Temp;Humidity;BMP_temperature;BMP_pressure;BME280_temperature;BME280_humidity;BME280_pressure;Samples;Min_cycle;Max_cycle;Signal;HPM_P1;HPM_P2
2021/10/11 00:03:14;;;;;;;40.60;21.50;;;;;;;5.99;60.14;99818.80;234213;1204;138452;-66
2021/10/11 00:08:17;;;;;;;42.20;20.80;;;;;;;5.88;60.13;99817.36;234403;1204;138501;-62
2021/10/11 00:13:22;;;;;;;35.00;19.80;;;;;;;5.84;60.06;99816.59;233991;1204;139443;-63
2021/10/11 00:18:25;;;;;;;39.10;20.70;;;;;;;5.79;60.40;99807.41;234333;1204;138420;-60
2021/10/11 00:23:28;;;;;;;39.00;21.30;;;;;;;5.74;60.45;99803.34;234191;1204;138381;-61
2021/10/11 00:28:31;;;;;;;36.10;20.30;;;;;;;5.70;60.50;99798.52;234415;1204;139572;-60
2021/10/11 00:33:34;;;;;;;37.70;19.80;;;;;;;5.67;60.49;99794.91;234217;1204;139307;-61
2021/10/11 00:38:38;;;;;;;39.50;20.00;;;;;;;5.62;60.59;99794.89;233974;1204;138279;-62
2021/10/11 00:43:41;;;;;;;36.70;20.00;;;;;;;5.54;60.82;99786.70;234192;1204;138378;-63
2021/10/11 00:48:44;;;;;;;40.80;20.90;;;;;;;5.47;60.76;99782.86;234376;1204;138486;-61
2021/10/11 00:53:47;;;;;;;36.70;19.80;;;;;;;5.45;61.02;99786.58;233824;1204;138876;-66
2021/10/11 00:58:51;;;;;;;37.30;20.60;;;;;;;5.54;60.91;99782.65;234354;1205;139979;-65
2021/10/11 01:03:54;;;;;;;40.60;19.70;;;;;;;5.59;61.21;99783.89;234047;1204;138950;-61
2021/10/11 01:08:57;;;;;;;38.30;19.40;;;;;;;5.61;61.23;99775.58;234500;1204;138675;-61
2021/10/11 01:14:01;;;;;;;40.90;19.30;;;;;;;5.61;61.14;99758.30;234599;1204;138541;-63
2021/10/11 01:19:04;;;;;;;37.60;19.40;;;;;;;5.61;61.05;99758.86;234192;1204;152088;-62
2021/10/11 01:24:07;;;;;;;34.80;18.80;;;;;;;5.52;61.06;99761.59;234368;1204;138566;-61
2021/10/11 01:29:13;;;;;;;34.00;18.10;;;;;;;5.47;61.11;99761.73;234471;1204;138901;-61
2021/10/11 01:34:16;;;;;;;26.50;12.90;;;;;;;5.42;61.04;99756.75;234120;1204;138760;-61
2021/10/11 01:39:19;;;;;;;32.10;14.90;;;;;;;5.41;61.24;99749.77;234481;1204;139169;-60
2021/10/11 01:44:22;;;;;;;29.00;15.70;;;;;;;5.40;61.39;99748.89;234410;1204;138717;-63
2021/10/11 01:49:25;;;;;;;32.80;14.50;;;;;;;5.38;61.34;99747.73;234249;1204;140888;-64
2021/10/11 01:54:28;;;;;;;27.60;14.70;;;;;;;5.37;61.25;99742.14;233663;1204;138225;-63
2021/10/11 01:59:31;;;;;;;23.80;12.70;;;;;;;5.34;61.35;99744.52;234403;1204;138479;-69
2021/10/11 02:04:34;;;;;;;26.00;13.30;;;;;;;5.30;61.07;99738.12;234391;1204;138274;-73
2021/10/11 02:09:37;;;;;;;26.20;13.30;;;;;;;5.34;60.99;99744.52;234277;1204;139244;-65
2021/10/11 02:14:41;;;;;;;25.60;13.70;;;;;;;5.45;61.41;99736.63;234378;1202;139385;-68
2021/10/11 02:19:44;;;;;;;29.00;14.60;;;;;;;5.53;61.42;99726.19;234413;1205;138389;-65
2021/10/11 02:24:49;;;;;;;28.40;15.10;;;;;;;5.58;61.55;99726.21;234064;1204;138486;-61
2021/10/11 02:29:52;;;;;;;29.70;15.60;;;;;;;5.57;61.18;99722.36;234442;1204;139338;-65
2021/10/11 02:35:00;;;;;;;26.80;14.80;;;;;;;5.55;61.02;99718.53;234183;1203;138512;-65
2021/10/11 02:40:05;;;;;;;30.40;14.60;;;;;;;5.55;61.25;99711.31;233732;1204;138548;-61
2021/10/11 02:45:09;;;;;;;27.00;14.60;;;;;;;5.53;61.16;99710.16;234499;1204;141649;-60
2021/10/11 02:50:12;;;;;;;30.10;15.70;;;;;;;5.51;61.30;99703.38;234294;1204;138799;-61
2021/10/11 02:55:16;;;;;;;29.00;14.50;;;;;;;5.47;61.24;99701.53;233318;1204;138155;-64
2021/10/11 03:00:19;;;;;;;29.60;16.30;;;;;;;5.44;61.26;99696.89;234230;1204;140653;-61
2021/10/11 03:05:22;;;;;;;26.40;14.10;;;;;;;5.39;61.09;99694.73;234446;1204;138346;-65
2021/10/11 03:10:25;;;;;;;27.70;14.60;;;;;;;5.35;61.08;99685.53;234345;1204;138345;-62
2021/10/11 03:15:28;;;;;;;30.70;15.10;;;;;;;5.32;61.28;99685.80;234363;1204;138421;-58
2021/10/11 03:20:31;;;;;;;29.40;16.00;;;;;;;5.30;61.47;99683.94;233981;1204;139203;-63
2021/10/11 03:25:34;;;;;;;39.90;19.80;;;;;;;5.28;61.45;99684.35;234348;1204;137990;-61
2021/10/11 03:30:37;;;;;;;31.80;17.90;;;;;;;5.25;61.20;99680.20;234317;1204;138970;-64
2021/10/11 03:35:40;;;;;;;280.90;198.60;;;;;;;5.26;61.89;99679.64;234300;1204;139283;-63
2021/10/11 03:40:44;;;;;;;41.00;21.40;;;;;;;5.41;61.84;99683.96;234391;1204;138686;-63
2021/10/11 03:45:46;;;;;;;36.00;20.10;;;;;;;5.36;61.35;99673.56;234230;1204;138356;-66
2021/10/11 03:50:50;;;;;;;43.60;20.60;;;;;;;5.27;61.50;99667.14;234385;1204;138719;-61
2021/10/11 03:55:53;;;;;;;38.80;19.40;;;;;;;5.20;61.57;99666.27;234130;1204;138684;-62
2021/10/11 04:00:56;;;;;;;34.10;18.30;;;;;;;5.15;61.45;99668.02;234378;1204;139491;-59
2021/10/11 04:06:00;;;;;;;35.20;18.30;;;;;;;5.10;61.57;99663.95;234463;1203;138472;-62
2021/10/11 04:16:08;;;;;;;28.40;16.10;;;;;;;4.95;62.00;99662.10;233515;1203;138502;-65
2021/10/11 04:21:11;;;;;;;217.60;123.30;;;;;;;4.90;61.61;99656.11;234376;1205;138781;-61
2021/10/11 04:26:14;;;;;;;37.70;20.00;;;;;;;4.92;62.18;99656.40;234221;1205;139182;-65
2021/10/11 04:31:17;;;;;;;41.30;19.40;;;;;;;4.89;61.87;99645.76;234382;1205;140606;-67
2021/10/11 04:36:24;;;;;;;36.50;19.30;;;;;;;4.86;62.01;99632.99;233970;1205;142024;-65
2021/10/11 04:41:28;;;;;;;33.10;19.00;;;;;;;4.83;61.92;99634.84;234236;1205;139035;-61
2021/10/11 04:46:31;;;;;;;38.80;21.50;;;;;;;4.80;62.05;99640.92;234361;1205;138560;-67
2021/10/11 04:51:34;;;;;;;42.80;20.80;;;;;;;4.78;61.81;99636.22;234074;1205;138920;-63
2021/10/11 04:56:37;;;;;;;37.40;19.90;;;;;;;4.80;62.35;99632.98;234064;1205;138979;-63
2021/10/11 05:01:40;;;;;;;30.50;17.80;;;;;;;4.83;62.38;99632.05;234355;1205;138520;-64
2021/10/11 05:06:43;;;;;;;33.30;17.90;;;;;;;4.79;62.40;99624.61;234195;1205;138700;-62
2021/10/11 05:11:46;;;;;;;33.90;16.30;;;;;;;4.73;62.28;99620.70;234120;1205;139003;-63
2021/10/11 05:16:49;;;;;;;28.50;15.40;;;;;;;4.68;62.20;99619.10;234378;1205;138665;-60
2021/10/11 05:21:54;;;;;;;31.40;16.90;;;;;;;4.60;61.93;99626.36;234273;1205;138334;-67
2021/10/11 05:26:57;;;;;;;32.90;18.00;;;;;;;4.58;62.27;99630.63;234307;1205;138963;-65
2021/10/11 05:32:02;;;;;;;36.70;18.10;;;;;;;4.63;62.15;99630.67;234082;1204;139081;-62
2021/10/11 05:37:05;;;;;;;36.80;19.80;;;;;;;4.68;62.35;99630.17;234373;1197;138481;-66
2021/10/11 05:42:08;;;;;;;38.10;19.20;;;;;;;4.76;62.59;99626.44;234239;1204;138632;-64
2021/10/11 05:47:12;;;;;;;36.80;19.00;;;;;;;4.81;62.49;99629.11;234087;1200;138880;-64
2021/10/11 05:52:15;;;;;;;40.00;20.80;;;;;;;4.74;62.37;99629.67;234225;1205;138949;-62
2021/10/11 05:57:23;;;;;;;42.40;22.80;;;;;;;4.64;62.65;99627.31;234183;1205;138496;-64
2021/10/11 06:02:26;;;;;;;49.50;24.00;;;;;;;4.59;62.62;99621.48;234300;1205;138358;-61
2021/10/11 06:07:29;;;;;;;62.20;29.50;;;;;;;4.60;62.98;99617.23;234349;1204;138818;-60
2021/10/11 06:12:32;;;;;;;67.00;33.20;;;;;;;4.68;63.68;99621.58;234313;1204;138463;-59
2021/10/11 06:17:35;;;;;;;66.60;35.90;;;;;;;4.82;63.69;99624.52;234207;1205;139237;-66
2021/10/11 06:22:38;;;;;;;74.30;38.50;;;;;;;5.01;63.63;99627.62;234302;1205;139293;-63
2021/10/11 06:27:42;;;;;;;75.20;38.70;;;;;;;5.18;64.24;99620.07;234218;1205;139347;-67
2021/10/11 06:32:46;;;;;;;74.20;37.20;;;;;;;5.31;64.05;99617.94;234378;1205;138595;-61
2021/10/11 06:37:49;;;;;;;74.60;36.50;;;;;;;5.35;64.38;99616.92;234292;1205;139104;-62
2021/10/11 06:42:53;;;;;;;77.50;39.50;;;;;;;5.38;64.13;99616.29;234345;1204;138275;-61
2021/10/11 06:47:55;;;;;;;70.70;39.60;;;;;;;5.39;64.45;99611.51;234147;1205;138748;-60
2021/10/11 06:52:58;;;;;;;80.40;39.70;;;;;;;5.42;64.37;99611.77;233971;1205;138968;-66
2021/10/11 06:58:02;;;;;;;87.80;43.80;;;;;;;5.49;64.82;99617.35;234256;1205;139546;-67
2021/10/11 07:03:06;;;;;;;83.40;42.40;;;;;;;5.60;64.85;99613.11;234428;1205;138159;-66
2021/10/11 07:08:10;;;;;;;74.60;39.60;;;;;;;5.66;64.74;99604.48;234331;1198;138124;-65
2021/10/11 07:13:13;;;;;;;82.20;41.20;;;;;;;5.74;64.96;99600.02;233676;1205;138030;-63
2021/10/11 07:18:16;;;;;;;83.80;41.80;;;;;;;5.82;64.82;99597.63;234239;1205;138725;-63
2021/10/11 07:23:20;;;;;;;84.60;40.90;;;;;;;5.95;65.06;99597.39;234183;1205;138808;-64
2021/10/11 07:28:24;;;;;;;77.50;42.90;;;;;;;6.08;65.06;99594.45;234135;1206;138565;-66
2021/10/11 07:33:27;;;;;;;76.90;42.80;;;;;;;6.23;65.03;99596.95;234463;1205;138560;-62
2021/10/11 07:38:31;;;;;;;82.40;45.00;;;;;;;6.39;64.86;99592.84;234256;1204;139060;-62
2021/10/11 07:43:34;;;;;;;92.80;48.20;;;;;;;6.58;65.11;99584.59;234320;1205;138322;-64
2021/10/11 07:48:37;;;;;;;86.90;46.90;;;;;;;6.81;64.99;99576.65;234180;1205;141383;-63
2021/10/11 07:53:40;;;;;;;88.70;47.70;;;;;;;7.07;64.79;99570.35;234128;1205;138886;-62
2021/10/11 07:58:43;;;;;;;93.20;50.60;;;;;;;7.31;64.57;99567.45;234238;1204;138507;-62
2021/10/11 08:03:46;;;;;;;94.60;48.80;;;;;;;7.53;64.47;99560.94;234120;1205;138966;-62
2021/10/11 08:08:49;;;;;;;81.30;44.70;;;;;;;7.73;64.05;99555.86;234237;1205;139275;-65
2021/10/11 08:13:54;;;;;;;84.10;46.80;;;;;;;7.83;63.61;99554.35;234148;1205;138850;-62
2021/10/11 08:18:57;;;;;;;91.70;47.20;;;;;;;7.95;63.56;99548.92;234208;1205;138713;-66
2021/10/11 08:24:01;;;;;;;89.20;47.00;;;;;;;8.06;63.33;99551.27;234423;1204;139098;-67
2021/10/11 08:29:04;;;;;;;76.30;43.30;;;;;;;8.18;63.19;99552.49;234268;1204;139073;-63
2021/10/11 08:34:07;;;;;;;85.30;44.10;;;;;;;8.34;62.97;99544.02;234188;1205;138557;-63
2021/10/11 08:39:10;;;;;;;83.40;42.90;;;;;;;8.52;62.86;99542.00;234157;1205;141321;-62
2021/10/11 08:44:13;;;;;;;79.20;42.00;;;;;;;8.69;62.55;99547.92;233954;1205;139196;-62
2021/10/11 08:49:17;;;;;;;76.20;43.20;;;;;;;8.86;62.58;99540.78;234093;1206;139236;-61
2021/10/11 08:54:20;;;;;;;82.30;42.10;;;;;;;9.04;62.29;99540.65;234230;1205;139307;-62
2021/10/11 08:59:30;;;;;;;80.10;42.40;;;;;;;9.14;61.81;99535.52;233719;1205;139186;-64
2021/10/11 09:04:33;;;;;;;80.80;42.20;;;;;;;9.22;61.43;99537.09;233980;1205;140118;-63
2021/10/11 09:09:48;;;;;;;82.40;43.10;;;;;;;9.31;61.62;99535.98;234332;1204;138785;-62
2021/10/11 09:15:04;;;;;;;71.80;41.80;;;;;;;9.47;61.67;99531.65;234106;1205;141284;-68
2021/10/11 09:20:20;;;;;;;69.00;39.30;;;;;;;9.59;61.25;99530.31;234298;1204;139746;-64
2021/10/11 09:25:41;;;;;;;72.60;42.10;;;;;;;9.70;61.19;99525.34;234293;1205;138600;-60
2021/10/11 09:30:47;;;;;;;76.90;43.90;;;;;;;9.86;61.18;99518.31;234207;1204;139798;-63
2021/10/11 09:35:51;;;;;;;;;;;;;;;10.02;61.18;99520.18;234115;1205;138947;-64
2021/10/11 09:40:57;;;;;;;69.10;39.70;;;;;;;10.10;60.73;99516.56;234182;1204;125136;-66
2021/10/11 09:46:11;;;;;;;75.90;44.10;;;;;;;10.17;60.71;99513.67;234268;1204;138848;-66
2021/10/11 09:51:16;;;;;;;73.60;41.20;;;;;;;10.25;60.59;99509.58;234675;1204;138578;-63
2021/10/11 09:56:19;;;;;;;74.70;39.30;;;;;;;10.37;60.39;99504.85;234334;1204;139212;-63
2021/10/11 10:01:23;;;;;;;79.90;39.80;;;;;;;10.53;60.28;99502.07;234283;1205;139231;-63
2021/10/11 10:06:30;;;;;;;69.10;37.40;;;;;;;10.64;59.84;99493.82;234042;1204;139471;-64
2021/10/11 10:11:34;;;;;;;64.50;40.50;;;;;;;10.76;59.81;99485.50;234011;1204;139371;-69
2021/10/11 10:16:47;;;;;;;59.90;34.40;;;;;;;10.84;59.91;99476.93;233798;1205;139649;-63
2021/10/11 10:21:50;;;;;;;63.00;35.70;;;;;;;10.95;59.50;99470.80;234272;1204;139145;-63
2021/10/11 10:27:04;;;;;;;66.00;35.00;;;;;;;11.07;59.54;99460.86;234365;1204;139265;-68
2021/10/11 10:32:09;;;;;;;303.50;180.80;;;;;;;11.20;59.09;99455.86;234304;1205;140069;-69
2021/10/11 10:37:13;;;;;;;61.70;36.50;;;;;;;11.40;59.28;99441.73;233911;1204;140996;-60
2021/10/11 10:42:24;;;;;;;58.20;31.60;;;;;;;11.51;58.90;99430.75;234143;1204;139070;-63
2021/10/11 10:47:41;;;;;;;57.50;32.20;;;;;;;11.61;58.36;99423.80;234270;1204;139013;-64
2021/10/11 10:52:49;;;;;;;52.30;29.50;;;;;;;11.72;58.01;99420.46;234173;1205;138837;-64
2021/10/11 10:57:57;;;;;;;50.40;23.70;;;;;;;11.84;57.86;99418.85;234303;1205;139250;-72
2021/10/11 11:03:01;;;;;;;36.60;18.60;;;;;;;11.93;56.96;99413.69;234312;1203;139543;-67
2021/10/11 11:08:04;;;;;;;32.40;16.70;;;;;;;11.99;56.43;99397.52;234342;1203;140708;-66
2021/10/11 11:13:16;;;;;;;31.10;14.70;;;;;;;12.06;55.87;99394.89;234170;1204;139055;-63
2021/10/11 11:18:22;;;;;;;31.40;16.70;;;;;;;12.09;54.87;99393.33;234329;1204;138517;-63
2021/10/11 11:23:31;;;;;;;;;;;;;;;12.09;54.67;99386.02;233890;1204;139235;-68
2021/10/11 11:28:36;;;;;;;31.90;13.30;;;;;;;12.10;54.05;99376.90;234404;1204;125450;-63
2021/10/11 11:33:50;;;;;;;26.00;14.00;;;;;;;12.15;53.95;99368.06;234103;1204;138791;-64
2021/10/11 11:38:53;;;;;;;27.10;15.30;;;;;;;12.23;53.79;99364.32;234440;1204;138631;-71
2021/10/11 11:43:56;;;;;;;31.20;16.40;;;;;;;12.36;53.72;99358.55;234295;1204;141341;-69
2021/10/11 11:48:59;;;;;;;34.30;15.40;;;;;;;12.46;53.36;99353.45;234298;1204;139252;-62
2021/10/11 11:54:02;;;;;;;27.00;14.70;;;;;;;12.54;53.26;99343.63;234371;1204;141340;-63
2021/10/11 11:59:07;;;;;;;27.90;16.40;;;;;;;12.62;52.81;99343.13;234302;1204;139351;-64
2021/10/11 12:04:11;;;;;;;32.10;15.90;;;;;;;12.70;52.76;99342.08;234007;1205;140239;-71
2021/10/11 12:09:21;;;;;;;31.60;14.00;;;;;;;12.83;52.70;99339.23;234350;1204;139052;-63
2021/10/11 12:14:27;;;;;;;27.20;14.40;;;;;;;12.98;52.69;99336.06;234332;1204;138680;-60
2021/10/11 12:19:30;;;;;;;;;;;;;;;13.09;52.00;99337.85;234342;1204;138820;-60
2021/10/11 12:24:33;;;;;;;23.70;14.50;;;;;;;13.09;51.61;99327.89;234391;1204;125053;-63
2021/10/11 12:29:37;;;;;;;28.40;15.20;;;;;;;13.14;51.54;99323.46;234270;1204;138826;-63
2021/10/11 12:34:42;;;;;;;23.40;14.50;;;;;;;13.18;51.15;99327.41;234241;1204;138739;-64
2021/10/11 12:39:49;;;;;;;42.20;19.50;;;;;;;13.22;51.27;99324.30;234316;1204;139388;-64
2021/10/11 12:44:57;;;;;;;30.50;16.40;;;;;;;13.25;51.19;99328.05;234352;1204;139154;-61
2021/10/11 12:50:10;;;;;;;36.80;17.40;;;;;;;13.27;50.89;99324.52;234291;1204;139048;-64
2021/10/11 12:55:20;;;;;;;31.40;17.70;;;;;;;13.34;50.81;99324.41;234374;1204;138776;-72
2021/10/11 13:00:23;;;;;;;34.40;18.90;;;;;;;13.43;50.83;99321.82;234309;1204;138940;-63
2021/10/11 13:05:26;;;;;;;32.30;18.80;;;;;;;13.55;50.63;99308.52;234258;1204;139113;-64
2021/10/11 13:10:29;;;;;;;45.10;22.70;;;;;;;13.69;50.47;99315.16;234379;1204;139292;-67
2021/10/11 13:15:32;;;;;;;43.30;24.10;;;;;;;13.81;50.50;99312.22;234299;1204;139291;-61
2021/10/11 13:20:36;;;;;;;46.30;25.00;;;;;;;13.82;50.25;99310.21;234362;1204;139587;-64
2021/10/11 13:25:39;;;;;;;43.30;25.80;;;;;;;13.75;50.03;99305.34;234303;1204;140276;-63
2021/10/11 13:36:26;;;;;;;52.90;28.90;;;;;;;13.66;50.33;99295.65;234155;1205;139410;-61
2021/10/11 14:29:55;;;;;;;52.50;31.50;;;;;;;17.70;51.64;99239.45;234081;1204;140451;-63
2021/10/11 16:00:41;;;;;;;44.40;22.60;;;;;;;12.78;50.56;99241.83;232902;1205;138863;-64
2021/10/11 16:05:44;;;;;;;42.80;22.80;;;;;;;12.70;50.83;99245.23;233528;1205;139072;-64
2021/10/11 16:10:48;;;;;;;49.10;23.50;;;;;;;12.59;50.97;99244.16;234082;1204;139000;-64
2021/10/11 16:15:51;;;;;;;46.20;23.30;;;;;;;12.47;51.21;99245.67;233677;1204;138789;-63
2021/10/11 16:21:08;;;;;;;46.40;23.20;;;;;;;12.35;51.46;99247.73;234336;1204;138977;-63
2021/10/11 16:26:16;;;;;;;56.40;23.60;;;;;;;12.23;51.50;99247.28;233588;1204;138552;-64
2021/10/11 16:31:19;;;;;;;50.80;24.60;;;;;;;12.11;51.54;99250.00;233991;1205;138961;-67
2021/10/11 16:36:22;;;;;;;52.00;24.10;;;;;;;12.02;51.77;99254.52;234178;1205;138805;-64
2021/10/11 16:41:26;;;;;;;58.80;25.10;;;;;;;11.94;51.94;99259.29;233299;1205;139750;-61
2021/10/11 16:46:39;;;;;;;46.40;25.30;;;;;;;11.85;52.14;99263.42;232872;1205;139259;-61
2021/10/11 16:51:50;;;;;;;51.30;26.70;;;;;;;11.75;52.23;99271.28;233626;1204;139558;-67
2021/10/11 16:57:03;;;;;;;54.50;27.30;;;;;;;11.68;52.50;99272.14;233266;1205;138918;-66
2021/10/11 17:02:07;;;;;;;56.60;27.40;;;;;;;11.61;52.59;99268.11;234291;1204;139355;-68
2021/10/11 17:07:11;;;;;;;61.30;27.60;;;;;;;11.55;52.86;99265.26;233734;1205;139054;-64
2021/10/11 17:12:14;;;;;;;59.30;27.40;;;;;;;11.62;53.94;99259.45;233925;1205;138969;-67
2021/10/11 17:17:18;;;;;;;53.90;27.20;;;;;;;11.81;53.22;99260.24;234062;1205;139496;-63
2021/10/11 17:22:22;;;;;;;64.80;28.20;;;;;;;11.68;53.16;99268.72;233873;1205;139723;-65
2021/10/11 17:27:25;;;;;;;79.20;37.50;;;;;;;11.53;53.15;99270.59;234030;1205;138865;-63
2021/10/11 17:32:28;;;;;;;68.20;31.00;;;;;;;11.42;53.26;99275.65;234158;1205;140385;-62
2021/10/11 17:37:42;;;;;;;63.50;31.30;;;;;;;11.29;53.36;99268.86;234059;1205;139596;-64
2021/10/11 17:42:45;;;;;;;57.80;30.50;;;;;;;11.17;53.64;99266.92;234166;1205;139368;-62
2021/10/11 17:47:51;;;;;;;64.50;31.90;;;;;;;11.11;53.75;99265.33;234138;1204;138899;-67
2021/10/11 17:52:58;;;;;;;64.20;31.00;;;;;;;11.09;53.80;99264.20;234205;1204;138786;-63
2021/10/11 17:58:02;;;;;;;59.60;31.60;;;;;;;11.17;54.34;99262.27;234114;1204;139270;-65
2021/10/11 18:03:05;;;;;;;68.10;32.80;;;;;;;11.20;53.74;99261.43;234010;1204;138964;-63
2021/10/11 18:08:08;;;;;;;63.20;33.30;;;;;;;11.09;53.94;99260.80;234225;1203;139486;-64
2021/10/11 18:13:11;;;;;;;65.90;33.60;;;;;;;11.00;53.80;99263.66;234248;1204;138883;-64
2021/10/11 18:18:16;;;;;;;61.90;32.40;;;;;;;10.88;53.97;99261.36;234200;1204;141043;-66
2021/10/11 18:23:19;;;;;;;65.50;32.90;;;;;;;10.75;54.02;99261.25;234104;1204;139375;-64
2021/10/11 18:28:22;;;;;;;112.30;58.50;;;;;;;10.67;54.36;99262.98;234316;1204;139201;-60
2021/10/11 18:33:31;;;;;;;68.80;35.30;;;;;;;10.70;54.59;99262.44;234191;1204;139892;-64
2021/10/11 18:38:35;;;;;;;68.20;33.90;;;;;;;10.71;54.55;99259.91;234226;1204;138877;-65
2021/10/11 18:43:38;;;;;;;188.40;102.10;;;;;;;10.73;54.79;99254.30;234265;1204;139630;-64
2021/10/11 18:48:41;;;;;;;73.90;37.70;;;;;;;10.78;55.03;99253.30;234248;1204;139173;-65
2021/10/11 18:53:45;;;;;;;68.30;36.50;;;;;;;10.75;54.90;99249.38;234359;1204;139091;-67
2021/10/11 18:58:48;;;;;;;78.10;38.60;;;;;;;10.71;54.94;99247.30;234331;1204;139198;-66
2021/10/11 19:03:52;;;;;;;70.70;37.90;;;;;;;10.66;55.00;99249.55;234543;1204;139273;-66
2021/10/11 19:08:55;;;;;;;75.90;39.20;;;;;;;10.62;55.15;99245.36;234367;1204;139871;-67
2021/10/11 19:13:59;;;;;;;164.20;104.40;;;;;;;10.59;55.38;99242.16;234016;1204;139138;-64
2021/10/11 19:19:03;;;;;;;78.60;42.80;;;;;;;10.72;55.61;99241.21;234234;1204;139457;-62
2021/10/11 19:24:08;;;;;;;81.40;41.70;;;;;;;10.71;55.60;99240.55;234209;1205;139949;-65
2021/10/11 19:29:11;;;;;;;72.30;40.90;;;;;;;10.63;55.42;99239.05;234261;1204;139232;-64
2021/10/11 19:34:15;;;;;;;80.00;42.60;;;;;;;10.56;55.46;99236.50;234347;1204;140742;-62
2021/10/11 19:39:19;;;;;;;78.80;41.00;;;;;;;10.51;55.61;99233.23;234296;1204;139117;-62
2021/10/11 19:44:22;;;;;;;81.30;42.10;;;;;;;10.46;55.90;99231.38;234226;1204;139602;-61
2021/10/11 19:49:27;;;;;;;81.30;42.10;;;;;;;10.41;55.88;99232.56;233809;1204;139317;-63
2021/10/11 19:54:30;;;;;;;81.20;45.00;;;;;;;10.36;56.08;99228.23;234309;1204;138898;-60
2021/10/11 19:59:33;;;;;;;82.10;43.00;;;;;;;10.34;55.95;99222.66;234290;1204;138875;-61
2021/10/11 20:04:37;;;;;;;78.40;40.60;;;;;;;10.31;56.40;99223.05;234451;1204;139729;-62
2021/10/11 20:09:40;;;;;;;81.70;42.10;;;;;;;10.24;56.41;99217.23;234183;1204;139735;-61
2021/10/11 20:14:44;;;;;;;82.50;40.90;;;;;;;10.17;56.51;99216.67;234293;1204;138989;-64
2021/10/11 20:19:52;;;;;;;78.80;41.30;;;;;;;10.12;56.75;99213.48;234313;1205;139220;-63
2021/10/11 20:24:55;;;;;;;80.60;40.80;;;;;;;10.08;56.81;99213.00;234301;1204;138880;-60
2021/10/11 20:29:58;;;;;;;74.70;42.40;;;;;;;10.02;56.84;99207.81;234242;1196;138912;-59
2021/10/11 20:35:03;;;;;;;84.30;43.10;;;;;;;9.99;57.03;99209.27;234294;1204;138807;-60
2021/10/11 20:40:07;;;;;;;151.40;83.90;;;;;;;9.98;57.27;99212.17;234315;1203;139048;-58
2021/10/11 20:45:10;;;;;;;79.20;44.40;;;;;;;10.05;57.42;99209.98;234169;1205;139054;-60
2021/10/11 20:50:13;;;;;;;81.20;44.40;;;;;;;10.02;57.48;99211.92;234277;1204;139252;-61
2021/10/11 20:55:18;;;;;;;83.00;43.50;;;;;;;9.96;57.40;99210.68;234232;1204;139741;-63
2021/10/11 21:00:22;;;;;;;85.80;43.80;;;;;;;9.92;57.36;99205.21;234306;1204;139174;-61
2021/10/11 21:05:25;;;;;;;86.50;44.30;;;;;;;9.84;57.51;99202.85;234258;1205;139762;-58
2021/10/11 21:10:28;;;;;;;88.00;46.00;;;;;;;9.74;57.57;99205.70;234405;1204;139183;-61
2021/10/11 21:15:31;;;;;;;90.60;46.60;;;;;;;9.68;57.75;99200.69;234164;1204;138975;-59
2021/10/11 21:20:35;;;;;;;88.60;47.60;;;;;;;9.64;57.85;99197.05;234232;1204;138620;-63
2021/10/11 21:25:38;;;;;;;95.60;47.30;;;;;;;9.58;58.00;99188.85;234240;1204;139183;-59
2021/10/11 21:30:41;;;;;;;99.60;50.20;;;;;;;9.50;58.20;99190.52;234285;1204;139073;-61
2021/10/11 21:35:44;;;;;;;88.10;47.70;;;;;;;9.45;58.24;99181.98;234258;1204;138592;-60
2021/10/11 21:40:47;;;;;;;99.30;48.90;;;;;;;9.42;58.62;99181.41;234261;1204;140085;-60
2021/10/11 21:45:50;;;;;;;82.60;46.60;;;;;;;9.44;58.78;99174.60;234241;1204;139365;-61
2021/10/11 21:50:53;;;;;;;83.30;45.40;;;;;;;9.45;58.67;99176.46;234280;1204;139837;-61
2021/10/11 21:56:02;;;;;;;89.50;48.40;;;;;;;9.46;58.82;99171.30;234310;1204;139046;-60
2021/10/11 22:01:08;;;;;;;90.40;46.90;;;;;;;9.47;58.94;99171.73;234295;1204;138280;-60
2021/10/11 22:06:12;;;;;;;90.00;46.40;;;;;;;9.45;58.91;99170.07;233720;1204;139467;-58
2021/10/11 22:11:16;;;;;;;96.10;47.70;;;;;;;9.46;59.18;99163.65;234333;1204;139403;-60
2021/10/11 22:16:19;;;;;;;94.50;48.80;;;;;;;9.48;59.03;99159.30;234404;1204;139458;-59
2021/10/11 22:21:22;;;;;;;101.00;53.70;;;;;;;9.46;59.14;99152.70;234262;1204;139849;-60
2021/10/11 22:26:26;;;;;;;110.80;55.60;;;;;;;9.44;59.41;99146.79;234297;1204;139855;-60
2021/10/11 22:31:29;;;;;;;106.40;55.30;;;;;;;9.43;59.60;99142.61;234343;1204;139848;-58
2021/10/11 22:36:33;;;;;;;102.40;55.30;;;;;;;9.43;59.70;99141.38;234235;1204;139534;-59
2021/10/11 22:41:36;;;;;;;113.30;59.20;;;;;;;9.39;59.67;99139.27;234134;1204;138779;-59
2021/10/11 22:46:39;;;;;;;117.60;59.80;;;;;;;9.32;59.69;99136.11;234245;1204;138920;-60
2021/10/11 22:51:50;;;;;;;113.80;58.50;;;;;;;9.29;59.90;99134.02;234359;1204;139820;-58
2021/10/11 22:56:53;;;;;;;104.00;55.40;;;;;;;9.25;60.11;99129.77;234124;1204;139118;-66
2021/10/11 23:01:56;;;;;;;101.40;53.30;;;;;;;9.21;60.41;99131.21;234073;1204;138999;-65
2021/10/11 23:07:02;;;;;;;101.90;55.70;;;;;;;9.21;60.56;99128.06;234399;1204;139446;-64
2021/10/11 23:12:05;;;;;;;107.40;56.40;;;;;;;9.21;60.74;99128.05;234203;1204;139473;-65
2021/10/11 23:17:08;;;;;;;103.90;56.60;;;;;;;9.19;60.85;99125.83;234345;1204;139184;-66
2021/10/11 23:22:12;;;;;;;106.70;55.70;;;;;;;9.19;60.97;99128.53;234468;1205;141031;-66
2021/10/11 23:27:15;;;;;;;104.40;56.60;;;;;;;9.20;60.85;99126.52;233963;1204;138813;-66
2021/10/11 23:32:18;;;;;;;106.00;56.90;;;;;;;9.27;60.98;99127.05;234366;1204;141221;-64
2021/10/11 23:37:22;;;;;;;110.60;59.70;;;;;;;9.36;61.21;99123.70;234188;1204;139200;-64
2021/10/11 23:42:25;;;;;;;108.10;57.80;;;;;;;9.47;61.26;99122.00;234328;1203;138964;-67
2021/10/11 23:47:28;;;;;;;105.00;57.60;;;;;;;9.54;61.09;99126.38;234342;1204;139529;-64
2021/10/11 23:52:32;;;;;;;105.20;58.10;;;;;;;9.58;61.02;99126.70;234460;1204;138551;-61
2021/10/11 23:57:35;;;;;;;108.50;58.10;;;;;;;9.61;61.19;99127.04;234374;1204;139262;-64
